Time;durP1;ratioP1;P1;durP2;ratioP2;P2;SDS_P1;SDS_P2;PMS_P1;PMS_P2;Temp;Humidity;BMP_temperature;BMP_pressure;BME280_temperature;BME280_humidity;BME280_pressure;Samples;Min_cycle;Max_cycle;Signal;HPM_P1;HPM_P2
2022/05/08 00:00:04;;;;;;;22.73;4.00;;;;;;;;;;5079549;28;20040;-66
2022/05/08 00:02:30;;;;;;;22.08;4.88;;;;;;;;;;5072387;28;20051;-67
2022/05/08 00:04:56;;;;;;;24.35;3.97;;;;;;;;;;5072543;28;20052;-66
2022/05/08 00:07:22;;;;;;;26.00;4.28;;;;;;;;;;5080472;28;20381;-67
2022/05/08 00:09:48;;;;;;;21.67;3.88;;;;;;;;;;5090816;28;20044;-67
2022/05/08 00:12:15;;;;;;;17.40;4.28;;;;;;;;;;5090310;28;20048;-66
2022/05/08 00:14:41;;;;;;;15.30;3.83;;;;;;;;;;5087432;28;20036;-67
2022/05/08 00:17:11;;;;;;;20.85;4.25;;;;;;;;;;5090799;28;20047;-66
2022/05/08 00:19:38;;;;;;;24.73;4.78;;;;;;;;;;5089387;28;20055;-67
2022/05/08 00:22:05;;;;;;;23.20;4.25;;;;;;;;;;5084297;28;20044;-66
2022/05/08 00:24:31;;;;;;;24.05;4.47;;;;;;;;;;5086130;28;20071;-66
2022/05/08 00:26:57;;;;;;;24.95;4.57;;;;;;;;;;5086838;28;20498;-66
2022/05/08 00:29:23;;;;;;;28.20;4.78;;;;;;;;;;5092709;28;20495;-66
2022/05/08 00:31:49;;;;;;;22.42;4.90;;;;;;;;;;5090193;28;20052;-67
2022/05/08 00:34:15;;;;;;;20.73;4.10;;;;;;;;;;5085898;28;20400;-66
2022/05/08 00:36:41;;;;;;;23.02;5.00;;;;;;;;;;5078114;28;20053;-66
2022/05/08 00:39:07;;;;;;;21.90;4.60;;;;;;;;;;5072161;28;20041;-67
2022/05/08 00:41:33;;;;;;;18.50;4.10;;;;;;;;;;5071527;28;20044;-67
2022/05/08 00:43:59;;;;;;;15.05;3.50;;;;;;;;;;5080665;28;20375;-67
2022/05/08 00:46:27;;;;;;;20.23;4.32;;;;;;;;;;5104813;28;20152;-66
2022/05/08 00:48:53;;;;;;;19.63;4.43;;;;;;;;;;5079289;28;20063;-66
2022/05/08 00:51:19;;;;;;;27.63;5.53;;;;;;;;;;5081400;28;20123;-66
2022/05/08 00:53:50;;;;;;;22.30;4.40;;;;;;;;;;5091487;28;20081;-66
2022/05/08 00:56:17;;;;;;;19.08;4.50;;;;;;;;;;5090354;28;20040;-66
2022/05/08 00:58:44;;;;;;;19.63;5.05;;;;;;;;;;5091256;28;20047;-66
2022/05/08 01:01:10;;;;;;;20.08;4.78;;;;;;;;;;5092233;28;20063;-67
2022/05/08 01:03:37;;;;;;;20.98;5.00;;;;;;;;;;5081770;28;20047;-67
2022/05/08 01:06:05;;;;;;;18.52;4.43;;;;;;;;;;5072509;28;20171;-67
2022/05/08 01:08:32;;;;;;;14.45;3.90;;;;;;;;;;5085384;28;20044;-66
2022/05/08 01:10:59;;;;;;;21.98;5.03;;;;;;;;;;5074094;28;20063;-66
2022/05/08 01:13:25;;;;;;;16.30;4.85;;;;;;;;;;5090266;28;20581;-66
2022/05/08 01:15:51;;;;;;;24.33;5.43;;;;;;;;;;5090749;28;20064;-66
2022/05/08 01:18:17;;;;;;;16.67;4.53;;;;;;;;;;5091019;28;20489;-66
2022/05/08 01:20:44;;;;;;;25.38;5.43;;;;;;;;;;5090284;28;20089;-66
2022/05/08 01:23:11;;;;;;;19.02;5.03;;;;;;;;;;5089374;28;20449;-66
2022/05/08 01:25:45;;;;;;;19.67;4.75;;;;;;;;;;5081633;28;20484;-66
2022/05/08 01:28:11;;;;;;;22.85;5.05;;;;;;;;;;5085977;28;20559;-66
2022/05/08 01:30:39;;;;;;;21.52;5.75;;;;;;;;;;5089890;28;20517;-66
2022/05/08 01:33:06;;;;;;;27.95;5.75;;;;;;;;;;5094602;28;20525;-66
2022/05/08 01:35:32;;;;;;;23.80;5.28;;;;;;;;;;5094840;28;20044;-67
2022/05/08 01:37:58;;;;;;;19.42;5.32;;;;;;;;;;5084248;28;20127;-66
2022/05/08 01:40:24;;;;;;;25.80;5.47;;;;;;;;;;5086164;28;20127;-66
2022/05/08 01:42:51;;;;;;;20.98;4.68;;;;;;;;;;5077500;28;20510;-66
2022/05/08 01:45:17;;;;;;;20.75;5.60;;;;;;;;;;5094032;28;20449;-66
2022/05/08 01:50:27;;;;;;;24.30;5.93;;;;;;;;;;5076646;28;20411;-66
2022/05/08 01:52:53;;;;;;;21.98;5.57;;;;;;;;;;5086439;28;20069;-66
2022/05/08 01:55:20;;;;;;;20.95;4.80;;;;;;;;;;5075638;28;20415;-66
2022/05/08 01:57:46;;;;;;;22.10;5.15;;;;;;;;;;5106211;28;20077;-66
2022/05/08 02:00:12;;;;;;;19.45;5.60;;;;;;;;;;5093971;28;20040;-66
2022/05/08 02:02:38;;;;;;;25.75;6.63;;;;;;;;;;5092561;28;20040;-66
2022/05/08 02:05:04;;;;;;;24.80;5.82;;;;;;;;;;5092801;28;20498;-66
2022/05/08 02:07:31;;;;;;;29.10;5.78;;;;;;;;;;5084113;28;20117;-66
2022/05/08 02:09:57;;;;;;;20.73;5.30;;;;;;;;;;5094781;28;20051;-66
2022/05/08 02:12:23;;;;;;;26.52;6.75;;;;;;;;;;5088742;28;20044;-66
2022/05/08 02:14:49;;;;;;;19.00;5.13;;;;;;;;;;5074586;28;20090;-67
2022/05/08 02:17:14;;;;;;;20.60;4.97;;;;;;;;;;5092350;28;20458;-66
2022/05/08 02:19:40;;;;;;;23.30;5.90;;;;;;;;;;5092500;28;20102;-67
2022/05/08 02:22:06;;;;;;;30.10;6.28;;;;;;;;;;5089357;28;20048;-66
2022/05/08 02:24:32;;;;;;;18.63;4.90;;;;;;;;;;5093598;28;20111;-66
2022/05/08 02:26:58;;;;;;;25.90;6.95;;;;;;;;;;5084637;28;20047;-66
2022/05/08 02:29:24;;;;;;;19.23;4.95;;;;;;;;;;5101299;28;20074;-66
2022/05/08 02:31:50;;;;;;;22.08;4.90;;;;;;;;;;5079207;28;20119;-66
2022/05/08 02:34:16;;;;;;;27.33;6.00;;;;;;;;;;5083828;28;20052;-66
2022/05/08 02:36:42;;;;;;;19.73;5.72;;;;;;;;;;5092870;28;20040;-66
2022/05/08 02:39:08;;;;;;;21.95;5.30;;;;;;;;;;5086943;28;20507;-66
2022/05/08 02:41:34;;;;;;;20.30;5.82;;;;;;;;;;5079499;28;20403;-66
2022/05/08 02:44:00;;;;;;;24.30;6.20;;;;;;;;;;5093585;28;20043;-66
2022/05/08 02:46:26;;;;;;;33.63;6.63;;;;;;;;;;5092281;28;20036;-66
2022/05/08 02:48:52;;;;;;;22.80;6.05;;;;;;;;;;5089577;28;20426;-66
2022/05/08 02:51:18;;;;;;;21.58;5.90;;;;;;;;;;5073322;28;20051;-65
2022/05/08 02:53:44;;;;;;;21.95;5.28;;;;;;;;;;5079616;28;20109;-66
2022/05/08 02:58:54;;;;;;;15.68;5.05;;;;;;;;;;5088314;28;20080;-65
2022/05/08 03:01:20;;;;;;;22.65;5.50;;;;;;;;;;5084345;28;20427;-66
2022/05/08 03:03:46;;;;;;;26.55;5.88;;;;;;;;;;5091163;28;20124;-66
2022/05/08 03:06:13;;;;;;;26.45;6.07;;;;;;;;;;5092977;28;20123;-66
2022/05/08 03:08:40;;;;;;;24.00;5.90;;;;;;;;;;5085202;28;20087;-66
2022/05/08 03:13:51;;;;;;;22.17;6.18;;;;;;;;;;5092498;28;20079;-67
2022/05/08 03:16:17;;;;;;;23.95;5.53;;;;;;;;;;5084064;28;20131;-66
2022/05/08 03:18:44;;;;;;;21.25;6.43;;;;;;;;;;5085811;28;20072;-66
2022/05/08 03:21:11;;;;;;;32.10;8.27;;;;;;;;;;5077981;28;20534;-66
2022/05/08 03:23:37;;;;;;;22.52;6.00;;;;;;;;;;5092515;28;20036;-66
2022/05/08 03:26:06;;;;;;;32.78;7.57;;;;;;;;;;5073699;28;20033;-66
2022/05/08 03:28:33;;;;;;;24.52;6.15;;;;;;;;;;5076557;28;20051;-67
2022/05/08 03:30:59;;;;;;;27.77;7.40;;;;;;;;;;5084523;28;20052;-66
2022/05/08 03:33:26;;;;;;;39.83;9.45;;;;;;;;;;5088502;28;20109;-66
2022/05/08 03:35:52;;;;;;;40.38;8.40;;;;;;;;;;5089278;28;20558;-66
2022/05/08 03:38:18;;;;;;;53.40;9.85;;;;;;;;;;5090207;28;20043;-65
2022/05/08 03:40:44;;;;;;;30.80;6.97;;;;;;;;;;5073922;28;20047;-66
2022/05/08 03:43:10;;;;;;;45.15;9.40;;;;;;;;;;5084226;28;20040;-66
2022/05/08 03:45:36;;;;;;;68.80;12.90;;;;;;;;;;5081240;28;20496;-66
2022/05/08 03:48:03;;;;;;;108.60;17.88;;;;;;;;;;5091520;28;20513;-66
2022/05/08 03:50:29;;;;;;;55.42;10.52;;;;;;;;;;5090837;28;20051;-66
2022/05/08 03:52:56;;;;;;;34.53;8.23;;;;;;;;;;5077476;28;20475;-65
2022/05/08 03:55:22;;;;;;;34.45;8.15;;;;;;;;;;5072336;28;20037;-65
2022/05/08 03:57:48;;;;;;;29.73;6.82;;;;;;;;;;5081098;28;20036;-65
2022/05/08 04:00:15;;;;;;;41.53;9.68;;;;;;;;;;5090713;28;20044;-66
2022/05/08 04:02:41;;;;;;;25.98;7.25;;;;;;;;;;5087793;28;20098;-66
2022/05/08 04:05:07;;;;;;;45.28;11.05;;;;;;;;;;5092823;28;20040;-66
2022/05/08 04:07:33;;;;;;;53.88;11.05;;;;;;;;;;5091699;28;20044;-66
2022/05/08 04:10:00;;;;;;;77.53;14.65;;;;;;;;;;5087298;28;20611;-66
2022/05/08 04:12:26;;;;;;;71.88;14.93;;;;;;;;;;5091575;28;20039;-66
2022/05/08 04:14:52;;;;;;;67.97;14.25;;;;;;;;;;5083051;28;20043;-65
2022/05/08 04:17:18;;;;;;;53.60;12.13;;;;;;;;;;5092487;28;20072;-65
2022/05/08 04:19:46;;;;;;;116.18;23.00;;;;;;;;;;5076417;28;20052;-66
2022/05/08 04:24:57;;;;;;;53.97;13.10;;;;;;;;;;5086910;28;20044;-66
2022/05/08 04:27:23;;;;;;;77.10;20.42;;;;;;;;;;5080638;28;20049;-65
2022/05/08 04:29:50;;;;;;;30.45;8.27;;;;;;;;;;5085584;28;20036;-66
2022/05/08 04:32:16;;;;;;;29.85;7.95;;;;;;;;;;5077572;28;20036;-66
2022/05/08 04:34:42;;;;;;;57.33;12.23;;;;;;;;;;5082782;28;20059;-66
2022/05/08 04:37:09;;;;;;;68.35;13.13;;;;;;;;;;5078673;28;20098;-66
2022/05/08 04:39:35;;;;;;;55.03;13.32;;;;;;;;;;5079792;28;20135;-66
2022/05/08 04:42:01;;;;;;;39.03;10.73;;;;;;;;;;5083509;28;20469;-66
2022/05/08 04:44:27;;;;;;;44.08;11.15;;;;;;;;;;5088920;28;20047;-66
2022/05/08 04:46:54;;;;;;;44.67;10.70;;;;;;;;;;5083896;28;20052;-66
2022/05/08 04:49:20;;;;;;;53.35;12.77;;;;;;;;;;5092188;28;20115;-66
2022/05/08 04:51:46;;;;;;;21.38;7.28;;;;;;;;;;5088657;28;20055;-66
2022/05/08 04:54:12;;;;;;;20.52;6.75;;;;;;;;;;5087119;28;20032;-66
2022/05/08 04:56:38;;;;;;;23.77;7.03;;;;;;;;;;5088161;28;20036;-66
2022/05/08 04:59:04;;;;;;;26.63;8.65;;;;;;;;;;5080281;28;20056;-66
2022/05/08 05:01:30;;;;;;;26.40;6.90;;;;;;;;;;5073243;28;20391;-66
2022/05/08 05:03:56;;;;;;;26.23;8.27;;;;;;;;;;5093886;28;20040;-66
2022/05/08 05:06:22;;;;;;;22.58;7.63;;;;;;;;;;5085105;28;20047;-67
2022/05/08 05:08:48;;;;;;;23.27;7.00;;;;;;;;;;5094133;28;20040;-65
2022/05/08 05:11:14;;;;;;;71.90;16.08;;;;;;;;;;5094566;28;20047;-66
2022/05/08 05:13:40;;;;;;;35.78;10.55;;;;;;;;;;5086582;28;20511;-66
2022/05/08 05:16:06;;;;;;;73.25;15.80;;;;;;;;;;5089446;28;20059;-65
2022/05/08 05:18:32;;;;;;;29.45;7.82;;;;;;;;;;5093275;28;20036;-65
2022/05/08 05:20:58;;;;;;;27.98;7.80;;;;;;;;;;5083589;28;20127;-66
2022/05/08 05:23:25;;;;;;;44.55;12.45;;;;;;;;;;5088407;28;20047;-66
2022/05/08 05:25:51;;;;;;;53.42;15.18;;;;;;;;;;5076577;28;20040;-66
2022/05/08 05:28:17;;;;;;;43.60;11.82;;;;;;;;;;5074545;28;20398;-66
2022/05/08 05:30:43;;;;;;;34.40;9.85;;;;;;;;;;5091034;28;20049;-66
2022/05/08 05:33:15;;;;;;;112.28;23.77;;;;;;;;;;5090629;28;20384;-66
2022/05/08 05:35:41;;;;;;;57.75;13.95;;;;;;;;;;5087495;28;20093;-65
2022/05/08 05:38:07;;;;;;;31.60;8.85;;;;;;;;;;5095251;28;20129;-65
2022/05/08 05:40:33;;;;;;;26.45;6.40;;;;;;;;;;5083602;28;20048;-66
2022/05/08 05:42:59;;;;;;;53.17;11.48;;;;;;;;;;5086083;28;20066;-66
2022/05/08 05:45:26;;;;;;;94.70;22.48;;;;;;;;;;5090611;28;20048;-65
2022/05/08 05:47:54;;;;;;;60.95;14.50;;;;;;;;;;5094079;28;20044;-65
2022/05/08 05:50:20;;;;;;;107.80;21.50;;;;;;;;;;5093089;28;20056;-65
2022/05/08 05:52:46;;;;;;;28.65;8.23;;;;;;;;;;5089221;28;20056;-65
2022/05/08 05:55:13;;;;;;;43.47;10.88;;;;;;;;;;5100696;28;20048;-66
2022/05/08 05:57:39;;;;;;;37.92;7.95;;;;;;;;;;5082823;28;20048;-66
2022/05/08 06:00:06;;;;;;;34.92;8.77;;;;;;;;;;5085237;28;20090;-66
2022/05/08 06:02:32;;;;;;;48.42;13.10;;;;;;;;;;5093227;28;20490;-66
2022/05/08 06:04:58;;;;;;;19.35;4.93;;;;;;;;;;5089499;28;20055;-66
2022/05/08 06:07:24;;;;;;;28.08;7.30;;;;;;;;;;5081614;28;20047;-66
2022/05/08 06:09:50;;;;;;;25.27;6.72;;;;;;;;;;5093544;28;20047;-66
2022/05/08 06:12:16;;;;;;;12.20;3.97;;;;;;;;;;5094005;28;20174;-66
2022/05/08 06:14:42;;;;;;;19.38;4.72;;;;;;;;;;5079646;28;20097;-66
2022/05/08 06:17:08;;;;;;;21.88;6.43;;;;;;;;;;5078176;28;20036;-66
2022/05/08 06:19:34;;;;;;;16.23;4.70;;;;;;;;;;5080257;28;20040;-66
2022/05/08 06:22:00;;;;;;;12.85;3.40;;;;;;;;;;5093826;28;20108;-65
2022/05/08 06:24:26;;;;;;;15.23;4.10;;;;;;;;;;5089391;28;20044;-66
2022/05/08 06:26:52;;;;;;;16.52;4.78;;;;;;;;;;5087118;28;20041;-66
2022/05/08 06:29:18;;;;;;;19.60;4.65;;;;;;;;;;5080338;28;20055;-66
2022/05/08 06:31:46;;;;;;;26.80;6.18;;;;;;;;;;5110176;28;20056;-66
2022/05/08 06:34:12;;;;;;;16.77;4.23;;;;;;;;;;5089656;28;20430;-66
2022/05/08 06:36:39;;;;;;;17.88;5.38;;;;;;;;;;5091482;28;20182;-66
2022/05/08 06:39:04;;;;;;;12.45;3.42;;;;;;;;;;5083079;28;20098;-65
2022/05/08 06:41:30;;;;;;;30.48;4.80;;;;;;;;;;5089883;28;20474;-65
2022/05/08 06:43:56;;;;;;;14.73;3.35;;;;;;;;;;5087952;28;20093;-66
2022/05/08 06:46:22;;;;;;;10.10;2.97;;;;;;;;;;5091417;28;20036;-66
2022/05/08 06:48:49;;;;;;;20.30;3.65;;;;;;;;;;5091864;28;20433;-66
2022/05/08 06:51:15;;;;;;;18.40;3.40;;;;;;;;;;5088269;28;20040;-66
2022/05/08 06:53:43;;;;;;;15.82;3.15;;;;;;;;;;5087027;28;20113;-66
2022/05/08 06:56:09;;;;;;;13.20;2.83;;;;;;;;;;5091601;28;20539;-66
2022/05/08 07:01:34;;;;;;;9.27;2.60;;;;;;;;;;5089811;28;20493;-66
2022/05/08 07:01:42;;;;;;;11.95;2.90;;;;;;;;;;5086027;28;20037;-66
2022/05/08 07:04:09;;;;;;;12.88;3.13;;;;;;;;;;5085256;28;20491;-66
2022/05/08 07:06:39;;;;;;;15.57;3.08;;;;;;;;;;5093518;28;20051;-66
2022/05/08 07:09:05;;;;;;;21.20;3.38;;;;;;;;;;5092523;28;20047;-66
2022/05/08 07:11:32;;;;;;;18.98;4.10;;;;;;;;;;5089465;28;20495;-66
2022/05/08 07:13:58;;;;;;;9.00;2.47;;;;;;;;;;5089473;28;20035;-66
2022/05/08 07:16:24;;;;;;;14.35;2.63;;;;;;;;;;5092546;28;20479;-66
2022/05/08 07:18:50;;;;;;;13.35;2.97;;;;;;;;;;5090004;28;20089;-66
2022/05/08 07:21:18;;;;;;;11.25;2.47;;;;;;;;;;5089392;28;20036;-67
2022/05/08 07:23:44;;;;;;;15.93;3.22;;;;;;;;;;5089187;28;20539;-66
2022/05/08 07:26:10;;;;;;;11.25;2.35;;;;;;;;;;5088929;28;20122;-65
2022/05/08 07:28:36;;;;;;;13.43;2.65;;;;;;;;;;5088498;28;20044;-66
2022/05/08 07:31:03;;;;;;;8.50;2.20;;;;;;;;;;5088968;28;20040;-66
2022/05/08 07:33:29;;;;;;;7.82;2.55;;;;;;;;;;5087793;28;20162;-66
2022/05/08 07:36:14;;;;;;;9.75;2.35;;;;;;;;;;5084511;28;20620;-66
2022/05/08 07:38:40;;;;;;;14.05;2.72;;;;;;;;;;5087306;28;20032;-66
2022/05/08 07:41:06;;;;;;;13.13;2.75;;;;;;;;;;5086725;28;20040;-65
2022/05/08 07:43:32;;;;;;;14.00;3.00;;;;;;;;;;5090437;28;20040;-65
2022/05/08 07:45:59;;;;;;;9.50;2.30;;;;;;;;;;5090249;28;20278;-66
2022/05/08 07:48:25;;;;;;;16.13;3.40;;;;;;;;;;5088711;28;20124;-66
2022/05/08 07:50:51;;;;;;;11.15;2.88;;;;;;;;;;5088404;28;20071;-66
2022/05/08 07:53:18;;;;;;;10.98;3.35;;;;;;;;;;5089939;28;20394;-66
2022/05/08 07:55:51;;;;;;;9.88;2.47;;;;;;;;;;5088908;28;20495;-66
2022/05/08 07:58:17;;;;;;;17.83;2.97;;;;;;;;;;5085567;28;20079;-66
2022/05/08 08:00:43;;;;;;;10.20;2.63;;;;;;;;;;5089759;28;20067;-66
2022/05/08 08:03:09;;;;;;;9.20;3.05;;;;;;;;;;5088192;28;20083;-66
2022/05/08 08:05:35;;;;;;;13.07;3.83;;;;;;;;;;5087166;28;20042;-66
2022/05/08 08:08:01;;;;;;;30.08;5.22;;;;;;;;;;5087189;28;20483;-64
2022/05/08 08:10:29;;;;;;;12.93;2.85;;;;;;;;;;5090609;28;20044;-66
2022/05/08 08:12:55;;;;;;;10.50;2.37;;;;;;;;;;5083450;28;20052;-66
2022/05/08 08:15:21;;;;;;;10.15;2.30;;;;;;;;;;5088081;28;20433;-66
2022/05/08 08:17:47;;;;;;;9.00;2.47;;;;;;;;;;5079159;28;20040;-66
2022/05/08 08:20:13;;;;;;;6.50;2.13;;;;;;;;;;5081113;28;20051;-66
2022/05/08 08:22:39;;;;;;;13.68;3.22;;;;;;;;;;5089526;28;20048;-66
2022/05/08 08:25:05;;;;;;;17.85;4.18;;;;;;;;;;5085597;28;20560;-68
2022/05/08 08:27:32;;;;;;;7.70;2.35;;;;;;;;;;5081910;28;20052;-67
2022/05/08 08:29:59;;;;;;;10.10;2.53;;;;;;;;;;5086571;28;20087;-66
2022/05/08 08:32:25;;;;;;;7.22;2.63;;;;;;;;;;5091254;28;20047;-67
2022/05/08 08:34:53;;;;;;;10.90;2.58;;;;;;;;;;5088819;28;20048;-67
2022/05/08 08:37:19;;;;;;;9.70;2.95;;;;;;;;;;5072699;28;20543;-67
2022/05/08 08:39:45;;;;;;;11.05;2.90;;;;;;;;;;5087763;28;20069;-67
2022/05/08 08:42:14;;;;;;;15.13;3.60;;;;;;;;;;5087620;28;20102;-67
2022/05/08 08:47:42;;;;;;;11.75;2.33;;;;;;;;;;5088708;28;20195;-68
2022/05/08 08:50:09;;;;;;;26.83;4.65;;;;;;;;;;5089367;28;20499;-67
2022/05/08 08:52:36;;;;;;;11.32;2.67;;;;;;;;;;5087972;28;20080;-67
2022/05/08 08:55:02;;;;;;;9.32;2.42;;;;;;;;;;5083914;28;20048;-67
2022/05/08 08:57:28;;;;;;;16.42;4.57;;;;;;;;;;5089672;28;20046;-67
2022/05/08 08:59:54;;;;;;;14.55;3.33;;;;;;;;;;5092942;28;20406;-67
2022/05/08 09:02:20;;;;;;;11.48;2.55;;;;;;;;;;5100365;28;20048;-67
2022/05/08 09:04:49;;;;;;;8.82;2.40;;;;;;;;;;5083719;28;20047;-67
2022/05/08 09:07:15;;;;;;;;;;;;;;;;;;5095892;28;20052;-68
2022/05/08 09:09:41;;;;;;;15.30;4.05;;;;;;;;;;5096132;28;20385;-67
2022/05/08 09:12:16;;;;;;;21.75;5.43;;;;;;;;;;5088160;28;20036;-67
2022/05/08 09:14:42;;;;;;;6.45;2.70;;;;;;;;;;5089475;28;20502;-67
2022/05/08 09:17:08;;;;;;;8.48;2.53;;;;;;;;;;5084783;28;20048;-68
2022/05/08 09:19:37;;;;;;;13.93;3.35;;;;;;;;;;5088376;28;20101;-67
2022/05/08 09:22:04;;;;;;;9.98;2.47;;;;;;;;;;5091326;28;20048;-67
2022/05/08 09:24:33;;;;;;;13.65;3.20;;;;;;;;;;5093744;28;20518;-67
2022/05/08 09:27:12;;;;;;;10.30;2.65;;;;;;;;;;5092874;28;20036;-67
2022/05/08 09:29:38;;;;;;;9.82;2.40;;;;;;;;;;5088684;28;20082;-67
2022/05/08 09:32:04;;;;;;;13.23;3.10;;;;;;;;;;5086839;28;20048;-67
2022/05/08 09:34:30;;;;;;;17.42;3.55;;;;;;;;;;5078791;28;20070;-67
2022/05/08 09:37:09;;;;;;;16.17;4.07;;;;;;;;;;5081566;28;20080;-68
2022/05/08 09:39:35;;;;;;;11.18;2.67;;;;;;;;;;5086322;28;20083;-67
2022/05/08 09:42:01;;;;;;;9.60;2.67;;;;;;;;;;5087679;28;20087;-67
2022/05/08 09:44:27;;;;;;;13.25;3.05;;;;;;;;;;5106152;28;20043;-67
2022/05/08 09:46:53;;;;;;;7.13;2.33;;;;;;;;;;5075297;28;20049;-68
2022/05/08 09:49:20;;;;;;;10.00;2.50;;;;;;;;;;5086127;28;20044;-67
2022/05/08 09:51:47;;;;;;;10.65;2.20;;;;;;;;;;5092859;28;20452;-68
2022/05/08 09:54:13;;;;;;;10.70;2.30;;;;;;;;;;5087983;28;20036;-67
2022/05/08 09:56:40;;;;;;;7.45;2.58;;;;;;;;;;5090107;28;20097;-67
2022/05/08 09:59:07;;;;;;;11.13;2.67;;;;;;;;;;5090106;28;20408;-67
2022/05/08 10:01:34;;;;;;;12.38;3.00;;;;;;;;;;5088786;28;20040;-67
2022/05/08 10:04:00;;;;;;;9.57;2.53;;;;;;;;;;5091625;28;20371;-68
2022/05/08 10:06:30;;;;;;;11.15;2.63;;;;;;;;;;5091192;28;20048;-68
2022/05/08 10:13:53;;;;;;;11.80;2.60;;;;;;;;;;5086161;28;20085;-68
2022/05/08 10:14:30;;;;;;;8.82;2.45;;;;;;;;;;5092165;28;20483;-67
2022/05/08 10:16:56;;;;;;;9.20;2.55;;;;;;;;;;5087288;28;20052;-67
2022/05/08 10:19:28;;;;;;;14.38;2.65;;;;;;;;;;5094995;28;20498;-67
2022/05/08 10:22:02;;;;;;;13.15;2.30;;;;;;;;;;5087954;28;20033;-67
2022/05/08 10:24:54;;;;;;;10.05;2.28;;;;;;;;;;5089649;28;20414;-67
2022/05/08 10:27:26;;;;;;;9.77;2.28;;;;;;;;;;5092520;28;20040;-67
2022/05/08 10:29:52;;;;;;;11.27;3.08;;;;;;;;;;5093327;28;20044;-67
2022/05/08 10:32:33;;;;;;;7.63;2.13;;;;;;;;;;5093772;28;20052;-67
2022/05/08 10:35:10;;;;;;;9.02;2.50;;;;;;;;;;5076234;28;20047;-68
2022/05/08 10:37:36;;;;;;;19.98;3.33;;;;;;;;;;5090326;28;20444;-68
2022/05/08 10:40:03;;;;;;;12.05;3.30;;;;;;;;;;5093281;28;20044;-67
2022/05/08 10:42:39;;;;;;;10.95;1.83;;;;;;;;;;5084033;28;20045;-67
2022/05/08 10:45:05;;;;;;;8.80;2.80;;;;;;;;;;5090664;28;20052;-67
2022/05/08 10:47:36;;;;;;;10.90;2.50;;;;;;;;;;5089948;28;20039;-67
2022/05/08 10:50:02;;;;;;;6.85;2.30;;;;;;;;;;5083767;28;20048;-67
2022/05/08 10:52:30;;;;;;;14.93;3.35;;;;;;;;;;5093781;28;20060;-68
2022/05/08 10:54:59;;;;;;;6.75;2.35;;;;;;;;;;5081038;28;20483;-68
2022/05/08 10:57:31;;;;;;;12.23;2.90;;;;;;;;;;5088763;28;20441;-68
2022/05/08 10:59:57;;;;;;;6.97;1.98;;;;;;;;;;5088292;28;20043;-68
2022/05/08 11:02:41;;;;;;;8.40;2.13;;;;;;;;;;5088360;28;20395;-68
2022/05/08 11:05:08;;;;;;;6.93;2.05;;;;;;;;;;5085824;28;20042;-68
2022/05/08 11:07:34;;;;;;;8.55;2.10;;;;;;;;;;5086100;28;20130;-68
2022/05/08 11:10:00;;;;;;;9.05;2.40;;;;;;;;;;5092145;28;20047;-67
2022/05/08 11:12:26;;;;;;;13.45;2.22;;;;;;;;;;5086732;28;20043;-68
2022/05/08 11:15:08;;;;;;;6.75;2.05;;;;;;;;;;5090615;28;20102;-69
2022/05/08 11:17:34;;;;;;;12.70;2.90;;;;;;;;;;5087981;28;20127;-67
2022/05/08 11:20:01;;;;;;;8.82;2.10;;;;;;;;;;5083829;28;20079;-68
2022/05/08 11:22:27;;;;;;;9.25;1.88;;;;;;;;;;5088888;28;20056;-67
2022/05/08 11:25:10;;;;;;;8.70;1.80;;;;;;;;;;5084613;28;20073;-67
2022/05/08 11:27:36;;;;;;;9.10;2.10;;;;;;;;;;5073698;28;20056;-67
2022/05/08 11:30:04;;;;;;;9.38;2.20;;;;;;;;;;5079923;28;20051;-67
2022/05/08 11:38:15;;;;;;;9.55;2.40;;;;;;;;;;5091647;28;20048;-67
2022/05/08 11:40:42;;;;;;;14.07;3.55;;;;;;;;;;5088416;28;20520;-67
2022/05/08 11:43:07;;;;;;;10.57;2.42;;;;;;;;;;5073983;28;20124;-67
2022/05/08 11:45:33;;;;;;;10.40;2.42;;;;;;;;;;5079788;28;20123;-67
2022/05/08 11:47:59;;;;;;;48.53;12.63;;;;;;;;;;5090432;28;20040;-67
2022/05/08 11:50:25;;;;;;;13.88;2.85;;;;;;;;;;5086882;28;20510;-67
2022/05/08 11:53:00;;;;;;;12.65;2.70;;;;;;;;;;5086711;28;20056;-67
2022/05/08 11:55:26;;;;;;;18.40;3.97;;;;;;;;;;5085751;28;20045;-67
2022/05/08 11:57:52;;;;;;;12.55;2.95;;;;;;;;;;5078255;28;20047;-68
2022/05/08 12:00:18;;;;;;;6.95;2.03;;;;;;;;;;5077892;28;20517;-68
2022/05/08 12:02:46;;;;;;;13.00;2.63;;;;;;;;;;5086840;28;20036;-68
2022/05/08 12:05:22;;;;;;;12.15;2.53;;;;;;;;;;5088484;28;20079;-67
2022/05/08 12:07:48;;;;;;;7.38;2.78;;;;;;;;;;5091476;28;20032;-68
2022/05/08 12:10:16;;;;;;;9.13;2.00;;;;;;;;;;5092014;28;20414;-68
2022/05/08 12:12:42;;;;;;;11.60;2.90;;;;;;;;;;5082804;28;20411;-68
2022/05/08 12:15:09;;;;;;;10.77;2.50;;;;;;;;;;5091305;28;20043;-68
2022/05/08 12:17:41;;;;;;;6.88;2.20;;;;;;;;;;5086106;28;20083;-68
2022/05/08 12:20:11;;;;;;;8.05;2.88;;;;;;;;;;5086420;28;20051;-68
2022/05/08 12:22:37;;;;;;;12.50;3.00;;;;;;;;;;5108287;28;20068;-68
2022/05/08 12:25:04;;;;;;;9.55;2.38;;;;;;;;;;5086536;28;20048;-68
2022/05/08 12:27:30;;;;;;;31.85;5.45;;;;;;;;;;5090697;28;20123;-68
2022/05/08 12:29:56;;;;;;;12.98;2.65;;;;;;;;;;5089834;28;20044;-68
2022/05/08 12:32:24;;;;;;;10.75;2.65;;;;;;;;;;5077305;28;20048;-68
2022/05/08 12:34:50;;;;;;;;;;;;;;;;;;5086132;28;20044;-68
2022/05/08 12:37:17;;;;;;;5.95;2.03;;;;;;;;;;5086957;28;19920;-68
2022/05/08 12:39:43;;;;;;;8.65;2.25;;;;;;;;;;5082046;28;20499;-68
2022/05/08 12:42:10;;;;;;;9.35;2.45;;;;;;;;;;5087230;28;20044;-68
2022/05/08 12:44:39;;;;;;;5.40;2.10;;;;;;;;;;5085848;28;20044;-68
2022/05/08 12:47:06;;;;;;;10.52;2.33;;;;;;;;;;5092485;28;20089;-68
2022/05/08 12:49:32;;;;;;;11.38;2.40;;;;;;;;;;5082710;28;20082;-68
2022/05/08 12:51:58;;;;;;;11.70;2.85;;;;;;;;;;5085809;28;20044;-68
2022/05/08 12:54:24;;;;;;;11.07;3.17;;;;;;;;;;5090025;28;20043;-68
2022/05/08 12:56:50;;;;;;;20.58;4.72;;;;;;;;;;5084673;28;20063;-67
2022/05/08 13:02:01;;;;;;;12.57;2.97;;;;;;;;;;5083460;28;20049;-68
2022/05/08 13:04:27;;;;;;;9.80;2.35;;;;;;;;;;5091671;28;20048;-68
2022/05/08 13:06:53;;;;;;;10.43;2.72;;;;;;;;;;5084396;28;20131;-68
2022/05/08 13:09:19;;;;;;;9.13;2.50;;;;;;;;;;5089137;28;20131;-68
2022/05/08 13:11:46;;;;;;;27.13;6.07;;;;;;;;;;5090833;28;20122;-68
2022/05/08 13:14:12;;;;;;;8.85;2.10;;;;;;;;;;5092160;28;20047;-68
2022/05/08 13:16:38;;;;;;;10.18;2.78;;;;;;;;;;5091026;28;20067;-68
2022/05/08 13:19:04;;;;;;;7.57;2.22;;;;;;;;;;5079640;28;20047;-68
2022/05/08 13:21:31;;;;;;;7.78;2.15;;;;;;;;;;5087830;28;20036;-68
2022/05/08 13:23:57;;;;;;;10.13;3.10;;;;;;;;;;5087051;28;20490;-68
2022/05/08 13:26:23;;;;;;;40.55;9.05;;;;;;;;;;5093549;28;20040;-68
2022/05/08 13:28:49;;;;;;;26.77;6.97;;;;;;;;;;5092886;28;20052;-68
2022/05/08 13:31:15;;;;;;;12.23;2.92;;;;;;;;;;5093903;28;20104;-68
2022/05/08 13:33:41;;;;;;;10.80;2.65;;;;;;;;;;5091340;28;20044;-67
2022/05/08 13:36:08;;;;;;;11.43;2.78;;;;;;;;;;5094206;28;20499;-68
2022/05/08 13:38:34;;;;;;;8.27;2.90;;;;;;;;;;5091072;28;20447;-68
2022/05/08 13:41:00;;;;;;;11.60;2.85;;;;;;;;;;5090815;28;20471;-68
2022/05/08 13:43:26;;;;;;;12.30;3.72;;;;;;;;;;5090633;28;20498;-68
2022/05/08 13:45:53;;;;;;;8.27;2.28;;;;;;;;;;5095515;28;20075;-68
2022/05/08 13:48:19;;;;;;;6.97;2.30;;;;;;;;;;5091503;28;20482;-67
2022/05/08 13:50:47;;;;;;;6.00;2.10;;;;;;;;;;5075308;28;20419;-68
2022/05/08 13:53:13;;;;;;;12.60;2.60;;;;;;;;;;5079052;28;20115;-68
2022/05/08 13:55:40;;;;;;;6.43;2.17;;;;;;;;;;5085950;28;20052;-67
2022/05/08 13:58:06;;;;;;;9.18;2.72;;;;;;;;;;5079548;28;20044;-68
2022/05/08 14:00:33;;;;;;;11.43;3.08;;;;;;;;;;5085592;28;20040;-68
2022/05/08 14:02:59;;;;;;;9.38;2.63;;;;;;;;;;5089276;28;20047;-68
2022/05/08 14:05:25;;;;;;;10.00;2.28;;;;;;;;;;5093769;28;20394;-68
2022/05/08 14:07:51;;;;;;;11.52;2.53;;;;;;;;;;5074340;28;20431;-68
2022/05/08 14:10:17;;;;;;;9.85;2.58;;;;;;;;;;5091903;28;20544;-68
2022/05/08 14:12:45;;;;;;;9.77;2.60;;;;;;;;;;5088406;28;20082;-68
2022/05/08 14:15:11;;;;;;;32.30;7.77;;;;;;;;;;5078397;28;20094;-68
2022/05/08 14:17:37;;;;;;;8.45;1.90;;;;;;;;;;5083320;28;20312;-67
2022/05/08 14:20:03;;;;;;;7.40;2.17;;;;;;;;;;5084016;28;20044;-68
2022/05/08 14:22:29;;;;;;;8.85;2.55;;;;;;;;;;5088488;28;20422;-68
2022/05/08 14:24:55;;;;;;;12.90;2.70;;;;;;;;;;5089585;28;20033;-68
2022/05/08 14:27:22;;;;;;;7.78;2.25;;;;;;;;;;5092288;28;20135;-68
2022/05/08 14:29:48;;;;;;;8.43;2.80;;;;;;;;;;5094791;28;20071;-68
2022/05/08 14:37:44;;;;;;;14.63;2.65;;;;;;;;;;5091805;28;20044;-68
2022/05/08 14:40:10;;;;;;;9.35;2.50;;;;;;;;;;5094243;28;20398;-68
2022/05/08 14:42:37;;;;;;;13.18;3.00;;;;;;;;;;5084725;28;20041;-68
2022/05/08 14:45:03;;;;;;;12.15;3.22;;;;;;;;;;5086284;28;20040;-67
2022/05/08 14:47:29;;;;;;;27.33;6.20;;;;;;;;;;5078170;28;20062;-68
2022/05/08 14:49:55;;;;;;;12.73;5.32;;;;;;;;;;5087416;28;20411;-69
2022/05/08 14:52:21;;;;;;;11.68;3.28;;;;;;;;;;5085968;28;20096;-68
2022/05/08 14:54:47;;;;;;;23.92;5.78;;;;;;;;;;5085707;28;20119;-68
2022/05/08 14:57:15;;;;;;;16.90;6.35;;;;;;;;;;5090753;28;20044;-68
2022/05/08 14:59:41;;;;;;;8.38;2.70;;;;;;;;;;5086279;28;20087;-68